MKJPSKBO

Guest
Details From MKJP - Norman Manley Intl
To SKBO - Eldorado Intl
Flight Number -
Tags Generated
Created
Modified
Stats Distance 810 nm / 1,499 km
Max Altitude 0 ft / 0 m
Waypoints 4
Social Downloads 1
Likes 0
Share VATSIM

Download

Looking for another format? Having issues loading an existing format? Contact us
Advertisement - Login to hide

Notes

Generated

Route

MKJP SUCRE R2341 SKBO

ID Type Via Altitude Latitude Longitude Leg Dist Tot Dist Heading (true) Name
O MKJP APT - 0 ft / 0 m 17.94026˚ -76.79945˚ - 0 nm - -
SUCRE FIX - 0 ft / 0 m 8.79389˚ -74.81694˚ 561 nm 561 nm 168° / 168° -
R2341 FIX - 0 ft / 0 m 4.71050˚ -74.16917˚ 248 nm 809 nm 171° / 171° -
O SKBO APT - 0 ft / 0 m 4.71050˚ -74.16917˚ 0 nm 809 nm 0° / 180° -

Altitude Profile

Advertisement - Login to hide

Weather


0- 5 10 15 20 25 30 35+ Temperature / ° C

Clouds and Precipitation
Forecast for 2018-05-25 00:00 UTC. Updated 3 hours ago

Ground ~20,000 ft ~40,000 ft Winds

MKJP

Details ICAO MKJP (KIN)
Name Norman Manley Intl
Region Jamaica
Timezone Unknown (UTC+0.0)
Stats Elevation 10 ft / 3 m (AMSL)
Location 17.935665° -76.787560°
Runways 1
Magnetic Variation 7.591° W

METAR

MKJP 250200Z 12011KT 9999 FEW022 SCT040 BKN090 28/25 Q1014

Decode

TAF

TAF MKJP 242315Z 2500/2524 14015KT 9999 FEW022 BECMG 2514/2516 14021KT FEW020 FEW022CB

Decode

Departure Runways

ID Width Length Bearing (true) Bearing (mag) Surface Threshold Offset Overrun Length
12 150 ft / 46 m 8,912 ft / 2,717 m 112.09° 119.68° Asphalt 0 ft / 0 m 0 ft / 0 m
30 150 ft / 46 m 8,912 ft / 2,717 m 292.10° 299.69° Asphalt 0 ft / 0 m 0 ft / 0 m

SKBO

Details ICAO SKBO (BOG)
Name Bogota - El Dorado Intl
Region Colombia
Timezone America/Bogota (UTC-5.0)
Stats Elevation 8,361 ft / 2,548 m (AMSL)
Location 4.701594° -74.146946°
Runways 2
Magnetic Variation 7.330° W

METAR

SKBO 250200Z 35003KT 9999 FEW030 11/08 A3040

Decode

TAF

Not found

Destination Runways

ID Width Length Bearing (true) Bearing (mag) Surface Threshold Offset Overrun Length
13L 148 ft / 45 m 12,482 ft / 3,804 m 127.21° 134.54° Asphalt 0 ft / 0 m 0 ft / 0 m
13R 148 ft / 45 m 12,494 ft / 3,808 m 127.23° 134.56° Asphalt 0 ft / 0 m 200 ft / 61 m
31L 148 ft / 45 m 12,494 ft / 3,808 m 307.23° 314.56° Asphalt 0 ft / 0 m 190 ft / 58 m
31R 148 ft / 45 m 12,482 ft / 3,804 m 307.21° 314.54° Asphalt 0 ft / 0 m 0 ft / 0 m

Approach Navaids

Runway Type Ident Frequency Range Bearing (true) Bearing (mag) Slope Elevation
13L Localiser IEDR 111.30 MHz 18 nm / 33 km 127.21° 134.54° - 8,355 ft / 2,547 m (AMSL)
13L Glidescope IEDR 111.30 MHz 10 nm / 19 km 127.21° 134.54° 3.00° 8,357 ft / 2,547 m (AMSL)
13L DME IEDR 111.30 MHz 18 nm / 33 km - - - 8,361 ft / 2,548 m (AMSL)
13R Localiser IADO 110.70 MHz 18 nm / 33 km 127.23° 134.56° - 8,355 ft / 2,547 m (AMSL)
13R Glidescope IADO 110.70 MHz 10 nm / 19 km 127.23° 134.56° 3.00° 8,361 ft / 2,548 m (AMSL)
13R DME IADO 110.70 MHz 18 nm / 33 km - - - 8,361 ft / 2,548 m (AMSL)

Popular Alternatives